Time;durP1;ratioP1;P1;durP2;ratioP2;P2;SDS_P1;SDS_P2;PMS_P1;PMS_P2;Temp;Humidity;BMP_temperature;BMP_pressure;BME280_temperature;BME280_humidity;BME280_pressure;Samples;Min_cycle;Max_cycle;Signal;HPM_P1;HPM_P2
2021/11/13 00:00:27;;;;;;;9.02;6.93;;;;;15.90;100737.00;;;;5040919;28;20261;-84
2021/11/13 00:02:55;;;;;;;9.73;7.22;;;;;15.90;100731.00;;;;5037915;28;20199;-83
2021/11/13 00:05:24;;;;;;;10.45;7.80;;;;;15.90;100738.00;;;;5037888;28;20650;-83
2021/11/13 00:07:51;;;;;;;11.02;7.70;;;;;15.90;100730.00;;;;5038110;28;20223;-84
2021/11/13 00:10:26;;;;;;;9.77;7.25;;;;;15.90;100721.00;;;;5039253;28;20204;-84
2021/11/13 00:12:54;;;;;;;10.60;7.70;;;;;15.90;100715.00;;;;5041529;28;20196;-84
2021/11/13 00:15:21;;;;;;;9.52;7.30;;;;;15.90;100719.00;;;;5030991;28;20196;-83
2021/11/13 00:17:49;;;;;;;9.88;7.45;;;;;15.90;100720.00;;;;5034432;28;20200;-83
2021/11/13 00:20:18;;;;;;;8.85;6.40;;;;;15.90;100711.00;;;;5043741;28;20215;-83
2021/11/13 00:22:46;;;;;;;9.73;7.57;;;;;15.90;100708.00;;;;5031386;28;20227;-82
2021/11/13 00:25:15;;;;;;;13.50;7.63;;;;;15.90;100710.00;;;;5044391;28;20200;-83
2021/11/13 00:27:44;;;;;;;8.93;7.18;;;;;15.90;100694.00;;;;5030788;28;20457;-83
2021/11/13 00:30:13;;;;;;;9.55;6.85;;;;;15.90;100703.00;;;;5045451;28;20192;-84
2021/11/13 00:32:40;;;;;;;13.00;8.40;;;;;15.90;100706.00;;;;5032270;28;20670;-83
2021/11/13 00:35:09;;;;;;;13.55;7.32;;;;;15.90;100696.00;;;;5046786;28;20273;-84
2021/11/13 00:37:36;;;;;;;10.13;7.53;;;;;15.90;100698.00;;;;5036312;28;20200;-83
2021/11/13 00:40:05;;;;;;;10.95;6.85;;;;;15.90;100703.00;;;;5047264;28;20207;-84
2021/11/13 00:42:33;;;;;;;9.38;7.78;;;;;15.90;100695.00;;;;5031566;28;20213;-81
2021/11/13 00:45:01;;;;;;;11.00;7.70;;;;;15.90;100700.00;;;;5036735;28;20193;-84
2021/11/13 00:47:29;;;;;;;11.07;7.22;;;;;15.90;100694.00;;;;5031389;28;20239;-83
2021/11/13 00:49:56;;;;;;;10.32;7.55;;;;;15.90;100683.00;;;;5032315;28;20200;-84
2021/11/13 00:52:23;;;;;;;11.20;7.65;;;;;15.90;100678.00;;;;5030731;28;20784;-84
2021/11/13 00:54:51;;;;;;;10.68;7.60;;;;;15.90;100684.00;;;;5029647;28;20196;-84
2021/11/13 00:57:19;;;;;;;11.10;7.97;;;;;15.90;100675.00;;;;5030262;28;20200;-83
2021/11/13 00:59:46;;;;;;;9.82;7.70;;;;;15.90;100679.00;;;;5033700;28;20594;-84
2021/11/13 01:02:15;;;;;;;11.30;7.35;;;;;15.90;100663.00;;;;5032056;28;20189;-81
2021/11/13 01:04:42;;;;;;;9.93;7.50;;;;;15.90;100666.00;;;;5035225;28;20196;-81
2021/11/13 01:07:10;;;;;;;13.07;7.70;;;;;15.90;100660.00;;;;5030546;28;20224;-80
2021/11/13 01:09:38;;;;;;;8.75;7.03;;;;;15.90;100662.00;;;;5032620;28;20204;-82
2021/11/13 01:12:06;;;;;;;9.75;6.95;;;;;15.90;100668.00;;;;5030276;28;20210;-82
2021/11/13 01:14:39;;;;;;;9.13;6.97;;;;;16.00;100655.00;;;;5030313;28;20192;-82
2021/11/13 01:17:07;;;;;;;8.57;6.55;;;;;16.00;100648.00;;;;5033683;28;20200;-82
2021/11/13 01:19:36;;;;;;;10.15;7.40;;;;;16.00;100660.00;;;;5036824;28;20274;-81
2021/11/13 01:22:04;;;;;;;8.38;6.55;;;;;16.00;100660.00;;;;5030598;28;20208;-82
2021/11/13 01:24:31;;;;;;;10.55;7.50;;;;;16.00;100657.00;;;;5044747;28;20207;-82
2021/11/13 01:26:59;;;;;;;9.10;6.93;;;;;16.00;100658.00;;;;5049204;28;20224;-82
2021/11/13 01:29:27;;;;;;;9.32;7.50;;;;;16.00;100659.00;;;;5031455;28;20581;-82
2021/11/13 01:31:54;;;;;;;10.15;7.15;;;;;16.00;100655.00;;;;5032566;28;20214;-83
2021/11/13 01:34:21;;;;;;;9.32;6.78;;;;;16.00;100664.00;;;;5033408;28;20213;-82
2021/11/13 01:36:50;;;;;;;10.85;6.63;;;;;16.00;100656.00;;;;5029470;28;20196;-81
2021/11/13 01:39:18;;;;;;;11.10;6.97;;;;;16.00;100662.00;;;;5029987;28;20195;-82
2021/11/13 01:41:45;;;;;;;7.82;6.57;;;;;16.00;100654.00;;;;5034297;28;20545;-82
2021/11/13 01:44:13;;;;;;;12.02;6.60;;;;;16.00;100654.00;;;;5049648;28;20219;-82
2021/11/13 01:46:40;;;;;;;8.23;6.53;;;;;16.10;100651.00;;;;5042631;28;20223;-82
2021/11/13 01:49:08;;;;;;;10.02;7.80;;;;;16.10;100644.00;;;;5049448;28;20207;-82
2021/11/13 01:51:36;;;;;;;9.93;7.07;;;;;16.10;100650.00;;;;5030774;28;20236;-82
2021/11/13 01:54:07;;;;;;;10.48;7.35;;;;;16.10;100654.00;;;;5029578;28;20200;-82
2021/11/13 01:56:35;;;;;;;9.90;7.15;;;;;16.10;100649.00;;;;5029184;28;20405;-81
2021/11/13 01:59:06;;;;;;;10.20;7.20;;;;;16.10;100651.00;;;;5037242;28;20606;-81
2021/11/13 02:01:33;;;;;;;8.40;7.00;;;;;16.10;100656.00;;;;5033792;28;20573;-82
2021/11/13 02:04:01;;;;;;;9.95;6.80;;;;;16.10;100651.00;;;;5038043;28;20196;-81
2021/11/13 02:06:30;;;;;;;8.18;6.85;;;;;16.10;100647.00;;;;5028836;28;20725;-81
2021/11/13 02:08:57;;;;;;;9.63;6.50;;;;;16.10;100653.00;;;;5042695;28;20200;-81
2021/11/13 02:11:28;;;;;;;9.20;6.50;;;;;16.10;100643.00;;;;5029667;28;20931;-82
2021/11/13 02:13:57;;;;;;;9.23;6.43;;;;;16.20;100648.00;;;;5046522;28;20203;-80
2021/11/13 02:16:24;;;;;;;8.35;6.85;;;;;16.20;100645.00;;;;5048007;28;20273;-81
2021/11/13 02:18:52;;;;;;;8.05;6.63;;;;;16.20;100635.00;;;;5039205;28;20196;-82
2021/11/13 02:21:22;;;;;;;8.90;6.97;;;;;16.20;100635.00;;;;5029403;28;20199;-82
2021/11/13 02:23:49;;;;;;;8.73;6.13;;;;;16.20;100635.00;;;;5029512;28;20616;-82
2021/11/13 02:26:17;;;;;;;10.27;7.10;;;;;16.20;100628.00;;;;5029481;28;20663;-82
2021/11/13 02:28:44;;;;;;;9.98;7.30;;;;;16.20;100631.00;;;;5028621;28;20203;-82
2021/11/13 02:31:13;;;;;;;8.15;5.78;;;;;16.20;100628.00;;;;5029079;28;20201;-82
2021/11/13 02:33:40;;;;;;;9.13;7.18;;;;;16.30;100632.00;;;;5033203;28;20200;-82
2021/11/13 02:36:10;;;;;;;9.32;7.07;;;;;16.30;100635.00;;;;5040505;28;20580;-83
2021/11/13 02:38:40;;;;;;;10.90;7.55;;;;;16.30;100628.00;;;;5030976;28;20493;-83
2021/11/13 02:41:09;;;;;;;8.43;6.80;;;;;16.30;100625.00;;;;5029109;28;20203;-83
2021/11/13 02:43:38;;;;;;;8.40;6.72;;;;;16.30;100618.00;;;;5027946;28;20669;-83
2021/11/13 02:46:07;;;;;;;8.35;6.50;;;;;16.30;100618.00;;;;5039065;28;20207;-83
2021/11/13 02:48:37;;;;;;;7.88;6.60;;;;;16.30;100611.00;;;;5048418;28;20234;-82
2021/11/13 02:51:05;;;;;;;9.40;7.20;;;;;16.30;100608.00;;;;5033855;28;20228;-83
2021/11/13 02:53:33;;;;;;;7.72;6.93;;;;;16.30;100621.00;;;;5031752;28;20183;-83
2021/11/13 02:56:06;;;;;;;7.90;7.00;;;;;16.30;100617.00;;;;5040245;28;20196;-83
2021/11/13 02:58:34;;;;;;;10.25;7.40;;;;;16.30;100616.00;;;;5045316;28;20213;-83
2021/11/13 03:01:06;;;;;;;7.07;6.35;;;;;16.30;100622.00;;;;5033792;28;20203;-83
2021/11/13 03:03:34;;;;;;;9.38;7.40;;;;;16.40;100621.00;;;;5028332;28;20195;-83
2021/11/13 03:06:02;;;;;;;8.10;6.78;;;;;16.40;100617.00;;;;5029094;28;20196;-83
2021/11/13 03:08:31;;;;;;;8.50;6.30;;;;;16.40;100620.00;;;;5046597;28;20219;-83
2021/11/13 03:11:01;;;;;;;7.65;6.30;;;;;16.40;100623.00;;;;5048167;28;20196;-83
2021/11/13 03:13:31;;;;;;;7.70;6.82;;;;;16.40;100621.00;;;;5037257;28;20219;-83
2021/11/13 03:15:59;;;;;;;8.30;6.60;;;;;16.40;100630.00;;;;5044508;28;20203;-85
2021/11/13 03:18:27;;;;;;;11.40;6.93;;;;;16.40;100622.00;;;;5050577;28;20203;-85
2021/11/13 03:20:54;;;;;;;9.20;6.53;;;;;16.40;100627.00;;;;5051678;28;20219;-85
2021/11/13 03:23:22;;;;;;;8.77;6.95;;;;;16.40;100621.00;;;;5040842;28;20196;-85
2021/11/13 03:25:53;;;;;;;8.43;6.30;;;;;16.40;100626.00;;;;5051837;28;20826;-84
2021/11/13 03:28:25;;;;;;;9.35;6.75;;;;;16.40;100627.00;;;;5041999;28;20764;-84
2021/11/13 03:30:54;;;;;;;9.02;6.60;;;;;16.50;100622.00;;;;5035746;28;20196;-84
2021/11/13 03:33:21;;;;;;;9.55;7.45;;;;;16.50;100620.00;;;;5050757;28;20206;-84
2021/11/13 03:35:49;;;;;;;8.82;6.22;;;;;16.50;100615.00;;;;5051202;28;20208;-85
2021/11/13 03:38:18;;;;;;;7.88;6.85;;;;;16.50;100618.00;;;;5036008;28;20201;-84
2021/11/13 03:40:48;;;;;;;10.68;6.85;;;;;16.50;100620.00;;;;5031714;28;20192;-84
2021/11/13 03:43:16;;;;;;;7.13;6.43;;;;;16.50;100614.00;;;;5031805;28;20701;-85
2021/11/13 03:45:45;;;;;;;9.20;6.97;;;;;16.50;100611.00;;;;5049511;28;20208;-84
2021/11/13 03:48:14;;;;;;;7.70;5.65;;;;;16.50;100611.00;;;;5037244;28;20617;-83
2021/11/13 03:50:41;;;;;;;7.15;5.82;;;;;16.60;100615.00;;;;5039510;28;20235;-86
2021/11/13 03:53:09;;;;;;;7.40;6.00;;;;;16.60;100618.00;;;;5031748;28;20239;-85
2021/11/13 03:55:37;;;;;;;8.85;6.35;;;;;16.60;100608.00;;;;5032421;28;20208;-84
2021/11/13 03:58:05;;;;;;;9.48;7.15;;;;;16.60;100614.00;;;;5031803;28;20200;-84
2021/11/13 04:00:33;;;;;;;7.60;6.35;;;;;16.60;100618.00;;;;5032127;28;20196;-84
2021/11/13 04:03:01;;;;;;;8.20;6.28;;;;;16.60;100620.00;;;;5031663;28;20196;-85
2021/11/13 04:05:29;;;;;;;8.52;6.57;;;;;16.60;100624.00;;;;5031403;28;20701;-85
2021/11/13 04:07:57;;;;;;;9.52;6.53;;;;;16.60;100626.00;;;;5042295;28;20223;-85
2021/11/13 04:10:24;;;;;;;9.35;7.25;;;;;16.60;100623.00;;;;5040851;28;20232;-85
2021/11/13 04:12:52;;;;;;;9.00;7.22;;;;;16.60;100627.00;;;;5031877;28;20200;-85
2021/11/13 04:15:20;;;;;;;7.90;6.45;;;;;16.60;100619.00;;;;5049883;28;20196;-85
2021/11/13 04:17:48;;;;;;;7.43;6.63;;;;;16.60;100636.00;;;;5041105;28;20196;-86
2021/11/13 04:20:18;;;;;;;8.27;6.35;;;;;16.70;100632.00;;;;5031356;28;20223;-86
2021/11/13 04:22:48;;;;;;;7.63;5.78;;;;;16.70;100632.00;;;;5032084;28;20565;-85
2021/11/13 04:25:15;;;;;;;8.98;6.18;;;;;16.70;100635.00;;;;5037991;28;20204;-85
2021/11/13 04:27:44;;;;;;;7.57;5.25;;;;;16.70;100639.00;;;;5036288;28;20229;-85
2021/11/13 04:30:14;;;;;;;7.88;5.82;;;;;16.70;100640.00;;;;5041274;28;20677;-85
2021/11/13 04:32:42;;;;;;;8.15;5.78;;;;;16.70;100639.00;;;;5030049;28;20196;-85
2021/11/13 04:35:20;;;;;;;8.45;5.63;;;;;16.80;100642.00;;;;5049264;28;20707;-85
2021/11/13 04:37:51;;;;;;;6.07;5.47;;;;;16.80;100649.00;;;;5044661;28;20196;-85
2021/11/13 04:40:20;;;;;;;6.63;5.65;;;;;16.80;100654.00;;;;5041880;28;20200;-85
2021/11/13 04:42:48;;;;;;;7.05;5.97;;;;;16.80;100664.00;;;;5049036;28;20203;-86
2021/11/13 04:45:15;;;;;;;9.35;6.80;;;;;16.80;100663.00;;;;5045935;28;20204;-86
2021/11/13 04:47:43;;;;;;;7.30;5.90;;;;;16.80;100660.00;;;;5033513;28;20273;-85
2021/11/13 04:50:13;;;;;;;8.30;5.82;;;;;16.80;100663.00;;;;5045496;28;20208;-86
2021/11/13 04:52:40;;;;;;;6.68;5.65;;;;;16.80;100663.00;;;;5038811;28;20196;-86
2021/11/13 04:55:10;;;;;;;6.30;5.68;;;;;16.80;100666.00;;;;5030478;28;20212;-86
2021/11/13 04:57:37;;;;;;;6.68;5.95;;;;;16.80;100666.00;;;;5039049;28;20212;-86
2021/11/13 05:00:08;;;;;;;6.05;4.97;;;;;16.80;100672.00;;;;5049740;28;20192;-86
2021/11/13 05:02:35;;;;;;;6.28;4.72;;;;;16.90;100668.00;;;;5046523;28;21023;-86
2021/11/13 05:05:03;;;;;;;6.25;5.30;;;;;16.90;100675.00;;;;5031696;28;20200;-87
2021/11/13 05:07:30;;;;;;;7.22;5.45;;;;;16.80;100678.00;;;;5036976;28;20216;-86
2021/11/13 05:09:58;;;;;;;6.78;5.40;;;;;16.80;100683.00;;;;5050069;28;20191;-85
2021/11/13 05:12:27;;;;;;;5.78;5.15;;;;;16.80;100691.00;;;;5048269;28;20204;-86
2021/11/13 05:14:54;;;;;;;6.97;4.38;;;;;16.80;100684.00;;;;5037062;28;20212;-86
2021/11/13 05:17:21;;;;;;;6.80;4.72;;;;;16.80;100688.00;;;;5030507;28;20212;-87
2021/11/13 05:19:48;;;;;;;5.45;4.13;;;;;16.80;100689.00;;;;5029449;28;20216;-86
2021/11/13 05:22:16;;;;;;;4.70;4.10;;;;;16.80;100690.00;;;;5029696;28;20196;-86
2021/11/13 05:24:43;;;;;;;5.00;4.38;;;;;16.80;100687.00;;;;5029620;28;20215;-87
2021/11/13 05:27:10;;;;;;;5.85;4.47;;;;;16.80;100688.00;;;;5038222;28;20192;-86
2021/11/13 05:29:39;;;;;;;6.15;4.00;;;;;16.80;100689.00;;;;5047643;28;20257;-86
2021/11/13 05:32:07;;;;;;;5.18;4.65;;;;;16.90;100685.00;;;;5030150;28;20211;-85
2021/11/13 05:34:34;;;;;;;7.65;5.85;;;;;16.90;100679.00;;;;5029319;28;20196;-85
2021/11/13 05:37:02;;;;;;;5.55;5.00;;;;;16.90;100679.00;;;;5035320;28;20196;-85
2021/11/13 05:39:29;;;;;;;6.82;5.38;;;;;16.90;100680.00;;;;5037945;28;20941;-85
2021/11/13 05:41:57;;;;;;;6.43;5.45;;;;;16.90;100687.00;;;;5031372;28;20223;-86
2021/11/13 05:44:24;;;;;;;7.60;5.82;;;;;16.90;100687.00;;;;5030053;28;20196;-86
2021/11/13 05:46:54;;;;;;;7.85;6.35;;;;;16.90;100689.00;;;;5033881;28;20203;-85
2021/11/13 05:49:21;;;;;;;6.57;5.75;;;;;17.00;100687.00;;;;5039267;28;20219;-85
2021/11/13 05:51:49;;;;;;;6.85;5.68;;;;;17.00;100688.00;;;;5048902;28;20315;-85
2021/11/13 05:54:16;;;;;;;6.55;5.80;;;;;17.00;100679.00;;;;5045427;28;20666;-85
2021/11/13 05:56:43;;;;;;;7.65;5.95;;;;;17.00;100687.00;;;;5029764;28;20220;-85
2021/11/13 05:59:11;;;;;;;5.75;5.07;;;;;17.00;100677.00;;;;5028945;28;20219;-85
2021/11/13 06:01:38;;;;;;;6.28;5.30;;;;;17.00;100686.00;;;;5035568;28;20214;-85
2021/11/13 06:04:07;;;;;;;7.63;6.32;;;;;17.00;100681.00;;;;5043701;28;20203;-85
2021/11/13 06:06:34;;;;;;;7.07;6.22;;;;;17.00;100687.00;;;;5044994;28;20199;-85
2021/11/13 06:09:01;;;;;;;7.38;6.47;;;;;17.10;100686.00;;;;5030381;28;20220;-85
2021/11/13 06:11:28;;;;;;;8.52;5.97;;;;;17.10;100690.00;;;;5030111;28;20208;-85
2021/11/13 06:13:56;;;;;;;7.22;6.35;;;;;17.10;100695.00;;;;5028700;28;20204;-84
2021/11/13 06:16:23;;;;;;;8.60;5.88;;;;;17.10;100695.00;;;;5028946;28;20200;-85
2021/11/13 06:18:50;;;;;;;7.57;6.47;;;;;17.10;100693.00;;;;5036557;28;20202;-85
2021/11/13 06:21:19;;;;;;;7.97;6.65;;;;;17.10;100699.00;;;;5048303;28;20604;-85
2021/11/13 06:23:46;;;;;;;7.38;6.13;;;;;17.10;100697.00;;;;5046876;28;20191;-85
2021/11/13 06:26:15;;;;;;;8.30;7.07;;;;;17.10;100703.00;;;;5048754;28;20196;-86
2021/11/13 06:28:42;;;;;;;7.78;6.28;;;;;17.10;100702.00;;;;5039308;28;20223;-85
2021/11/13 06:31:10;;;;;;;7.80;6.88;;;;;17.10;100708.00;;;;5028988;28;20211;-85
2021/11/13 06:33:38;;;;;;;9.18;6.82;;;;;17.10;100712.00;;;;5041212;28;20200;-85
2021/11/13 06:36:05;;;;;;;8.50;6.57;;;;;17.10;100707.00;;;;5029735;28;20184;-85
2021/11/13 06:38:35;;;;;;;9.45;7.65;;;;;17.10;100714.00;;;;5041385;28;20257;-85
2021/11/13 06:41:02;;;;;;;7.82;6.43;;;;;17.20;100717.00;;;;5028667;28;20196;-86
2021/11/13 06:43:30;;;;;;;8.80;7.15;;;;;17.20;100720.00;;;;5029842;28;20227;-85
2021/11/13 06:45:57;;;;;;;8.38;7.45;;;;;17.20;100716.00;;;;5034099;28;20572;-83
2021/11/13 06:48:25;;;;;;;9.23;7.10;;;;;17.20;100718.00;;;;5036453;28;20219;-85
2021/11/13 06:50:53;;;;;;;8.35;6.70;;;;;17.20;100719.00;;;;5040325;28;20236;-84
2021/11/13 06:53:21;;;;;;;8.63;6.50;;;;;17.20;100723.00;;;;5039579;28;20223;-84
2021/11/13 06:55:50;;;;;;;7.55;6.18;;;;;17.20;100726.00;;;;5042205;28;20309;-84
2021/11/13 06:58:18;;;;;;;8.38;6.95;;;;;17.20;100729.00;;;;5041606;28;20196;-85
2021/11/13 07:00:45;;;;;;;10.13;7.78;;;;;17.20;100731.00;;;;5058709;28;20206;-84
2021/11/13 07:03:12;;;;;;;8.10;6.72;;;;;17.20;100738.00;;;;5068060;28;20207;-84
2021/11/13 07:05:39;;;;;;;7.07;5.95;;;;;17.20;100750.00;;;;5051574;28;20418;-84
2021/11/13 07:08:07;;;;;;;8.63;6.55;;;;;17.20;100751.00;;;;5043010;28;20222;-84
2021/11/13 07:10:34;;;;;;;9.05;7.15;;;;;17.20;100761.00;;;;5046857;28;20202;-85
2021/11/13 07:13:03;;;;;;;8.77;6.18;;;;;17.20;100765.00;;;;5047016;28;20196;-84
2021/11/13 07:15:32;;;;;;;8.07;6.38;;;;;17.30;100765.00;;;;5037757;28;20215;-83
2021/11/13 07:18:01;;;;;;;8.00;6.47;;;;;17.30;100771.00;;;;5046614;28;20234;-84
2021/11/13 07:20:29;;;;;;;7.78;6.75;;;;;17.30;100779.00;;;;5041563;28;20243;-84
2021/11/13 07:22:56;;;;;;;7.28;6.38;;;;;17.30;100781.00;;;;5039695;28;20196;-84
2021/11/13 07:25:26;;;;;;;8.38;6.78;;;;;17.30;100788.00;;;;5047021;28;20485;-84
2021/11/13 07:27:59;;;;;;;7.78;5.95;;;;;17.30;100788.00;;;;5036528;28;20196;-85
2021/11/13 07:30:35;;;;;;;10.00;6.50;;;;;17.30;100790.00;;;;5044434;28;20210;-84
2021/11/13 07:33:02;;;;;;;9.73;7.45;;;;;17.40;100796.00;;;;5045327;28;20206;-84
2021/11/13 07:35:29;;;;;;;8.90;7.05;;;;;17.40;100805.00;;;;5035787;28;20670;-85
2021/11/13 07:37:57;;;;;;;7.63;6.13;;;;;17.40;100809.00;;;;5034782;28;20188;-85
2021/11/13 07:40:24;;;;;;;8.25;5.95;;;;;17.40;100815.00;;;;5037438;28;20318;-85
2021/11/13 07:42:51;;;;;;;7.70;6.93;;;;;17.40;100812.00;;;;5044742;28;20207;-84
2021/11/13 07:45:19;;;;;;;9.88;6.07;;;;;17.40;100820.00;;;;5044765;28;20211;-84
2021/11/13 07:47:47;;;;;;;8.68;6.53;;;;;17.40;100820.00;;;;5034820;28;20207;-86
2021/11/13 07:50:17;;;;;;;6.53;5.75;;;;;17.40;100827.00;;;;5042074;28;20224;-83
2021/11/13 07:52:44;;;;;;;8.98;6.72;;;;;17.40;100819.00;;;;5041711;28;20196;-85
2021/11/13 07:55:12;;;;;;;7.47;6.53;;;;;17.50;100827.00;;;;5045893;28;20199;-83
2021/11/13 07:57:39;;;;;;;7.60;6.13;;;;;17.50;100823.00;;;;5045222;28;20218;-84
2021/11/13 08:00:09;;;;;;;8.02;6.22;;;;;17.50;100830.00;;;;5046148;28;20206;-83
2021/11/13 08:02:37;;;;;;;6.70;5.82;;;;;17.50;100823.00;;;;5043090;28;20837;-86
2021/11/13 08:05:07;;;;;;;7.35;6.22;;;;;17.50;100831.00;;;;5041237;28;20207;-85
2021/11/13 08:07:35;;;;;;;7.35;6.55;;;;;17.50;100825.00;;;;5040634;28;20199;-85
2021/11/13 08:10:03;;;;;;;8.13;7.15;;;;;17.50;100819.00;;;;5037049;28;20225;-84
2021/11/13 08:12:31;;;;;;;7.90;5.78;;;;;17.50;100811.00;;;;5036940;28;20196;-84
2021/11/13 08:14:58;;;;;;;7.00;6.18;;;;;17.50;100810.00;;;;5043365;28;20219;-86
2021/11/13 08:17:25;;;;;;;6.97;6.22;;;;;17.50;100819.00;;;;5042090;28;20568;-83
2021/11/13 08:19:52;;;;;;;7.82;6.30;;;;;17.50;100808.00;;;;5035591;28;20219;-86
2021/11/13 08:22:21;;;;;;;6.13;5.15;;;;;17.50;100812.00;;;;5042469;28;20224;-86
2021/11/13 08:24:48;;;;;;;7.53;5.63;;;;;17.60;100812.00;;;;5050464;28;20273;-85
2021/11/13 08:27:16;;;;;;;7.65;6.13;;;;;17.60;100812.00;;;;5050434;28;20187;-85
2021/11/13 08:29:43;;;;;;;6.75;5.63;;;;;17.60;100813.00;;;;5049804;28;20220;-85
2021/11/13 08:32:11;;;;;;;7.20;5.88;;;;;17.60;100828.00;;;;5050103;28;20207;-85
2021/11/13 08:34:38;;;;;;;6.13;4.78;;;;;17.60;100830.00;;;;5050054;28;20203;-85
2021/11/13 08:37:06;;;;;;;5.40;4.78;;;;;17.70;100835.00;;;;5050157;28;20204;-85
2021/11/13 08:39:35;;;;;;;6.63;5.03;;;;;17.70;100832.00;;;;5042359;28;20208;-85
2021/11/13 08:42:05;;;;;;;4.72;4.20;;;;;17.70;100831.00;;;;5048829;28;20257;-86
2021/11/13 08:44:32;;;;;;;5.07;4.30;;;;;17.70;100838.00;;;;5047714;28;20191;-85
2021/11/13 08:46:59;;;;;;;4.93;4.43;;;;;17.80;100838.00;;;;5034405;28;20875;-85
2021/11/13 08:49:27;;;;;;;4.45;3.85;;;;;17.80;100843.00;;;;5041707;28;20228;-85
2021/11/13 08:51:54;;;;;;;5.63;3.97;;;;;17.80;100854.00;;;;5036297;28;21056;-85
2021/11/13 08:54:21;;;;;;;6.22;4.80;;;;;17.90;100855.00;;;;5040089;28;20211;-82
2021/11/13 08:56:50;;;;;;;6.35;5.05;;;;;17.90;100861.00;;;;5043070;28;20581;-82
2021/11/13 08:59:18;;;;;;;4.97;4.07;;;;;17.90;100852.00;;;;5042768;28;20202;-84
2021/11/13 09:01:45;;;;;;;5.30;3.78;;;;;18.00;100857.00;;;;5043187;28;20222;-85
2021/11/13 09:04:14;;;;;;;5.80;4.38;;;;;18.00;100852.00;;;;5047448;28;20199;-85
2021/11/13 09:06:42;;;;;;;4.93;3.72;;;;;18.00;100849.00;;;;5043939;28;20573;-83
2021/11/13 09:09:10;;;;;;;5.35;3.63;;;;;18.00;100860.00;;;;5046446;28;20870;-81
2021/11/13 09:11:41;;;;;;;4.53;3.63;;;;;18.10;100857.00;;;;5036008;28;20214;-82
2021/11/13 09:14:14;;;;;;;5.93;4.18;;;;;18.10;100866.00;;;;5043948;28;20667;-82
2021/11/13 09:16:41;;;;;;;4.45;3.60;;;;;18.10;100862.00;;;;5047798;28;20208;-83
2021/11/13 09:19:10;;;;;;;5.15;3.97;;;;;18.20;100868.00;;;;5048814;28;20203;-83
2021/11/13 09:21:38;;;;;;;4.38;3.60;;;;;18.20;100865.00;;;;5045473;28;20207;-84
2021/11/13 09:24:06;;;;;;;4.25;3.38;;;;;18.20;100869.00;;;;5037434;28;20203;-83
2021/11/13 09:26:35;;;;;;;6.13;4.03;;;;;18.20;100873.00;;;;5039704;28;20196;-83
2021/11/13 09:29:02;;;;;;;4.90;3.95;;;;;18.30;100879.00;;;;5040450;28;20227;-83
2021/11/13 09:31:31;;;;;;;4.60;3.78;;;;;18.30;100890.00;;;;5041828;28;20672;-82
2021/11/13 09:33:58;;;;;;;4.45;3.33;;;;;18.40;100893.00;;;;5040583;28;20192;-81
2021/11/13 09:36:25;;;;;;;4.65;3.90;;;;;18.40;100891.00;;;;5048282;28;20203;-84
2021/11/13 09:38:55;;;;;;;4.55;3.30;;;;;18.50;100889.00;;;;5041206;28;20204;-86
2021/11/13 09:41:23;;;;;;;5.57;3.45;;;;;18.50;100892.00;;;;5038167;28;20282;-85
2021/11/13 09:43:50;;;;;;;5.50;4.00;;;;;18.50;100894.00;;;;5034741;28;20204;-85
2021/11/13 09:46:18;;;;;;;6.50;4.07;;;;;18.60;100899.00;;;;5031165;28;20196;-82
2021/11/13 09:48:49;;;;;;;5.28;3.30;;;;;18.60;100907.00;;;;5035185;28;20298;-85
2021/11/13 09:51:16;;;;;;;4.57;3.22;;;;;18.70;100918.00;;;;5038799;28;20227;-84
2021/11/13 09:53:44;;;;;;;5.35;3.40;;;;;18.80;100912.00;;;;5043764;28;20199;-83
2021/11/13 09:56:11;;;;;;;3.45;2.88;;;;;18.80;100917.00;;;;5035345;28;20203;-83
2021/11/13 09:58:39;;;;;;;3.50;2.90;;;;;18.90;100917.00;;;;5039110;28;20203;-83
2021/11/13 10:01:07;;;;;;;3.05;2.35;;;;;18.90;100916.00;;;;5034712;28;20208;-81
2021/11/13 10:03:34;;;;;;;4.18;2.72;;;;;18.90;100923.00;;;;5034255;28;20204;-81
2021/11/13 10:06:05;;;;;;;3.03;2.20;;;;;18.90;100928.00;;;;5036540;28;20576;-80
2021/11/13 10:08:33;;;;;;;3.15;2.20;;;;;19.00;100928.00;;;;5030334;28;20200;-80
2021/11/13 10:11:04;;;;;;;3.65;2.10;;;;;19.00;100935.00;;;;5035924;28;20231;-82
2021/11/13 10:13:33;;;;;;;5.75;2.33;;;;;19.10;100938.00;;;;5043215;28;20200;-83
2021/11/13 10:16:04;;;;;;;3.47;1.98;;;;;19.10;100933.00;;;;5034763;28;20200;-82
2021/11/13 10:18:34;;;;;;;2.38;1.95;;;;;19.10;100934.00;;;;5043350;28;20230;-83
2021/11/13 10:21:10;;;;;;;4.22;1.73;;;;;19.00;100934.00;;;;5042962;28;20303;-84
2021/11/13 10:23:42;;;;;;;4.28;1.58;;;;;19.10;100948.00;;;;5028108;28;20577;-83
2021/11/13 10:26:13;;;;;;;7.20;2.08;;;;;19.10;100944.00;;;;5042945;28;20266;-83
2021/11/13 10:28:55;;;;;;;2.90;1.80;;;;;19.10;100942.00;;;;5042337;28;20712;-83
2021/11/13 10:31:26;;;;;;;2.60;1.70;;;;;19.20;100943.00;;;;5028508;28;20196;-83
2021/11/13 10:33:56;;;;;;;1.95;1.52;;;;;19.20;100943.00;;;;5028153;28;20196;-83
2021/11/13 10:36:28;;;;;;;2.00;1.65;;;;;19.10;100939.00;;;;5040606;28;20204;-80
2021/11/13 10:39:07;;;;;;;2.30;1.48;;;;;19.10;100938.00;;;;5037790;28;20208;-80
2021/11/13 10:41:47;;;;;;;2.92;1.80;;;;;19.10;100944.00;;;;5044225;28;20212;-80
2021/11/13 10:44:17;;;;;;;2.08;1.52;;;;;19.20;100944.00;;;;5050284;28;20683;-79
2021/11/13 10:46:46;;;;;;;3.72;2.08;;;;;19.20;100948.00;;;;5041171;28;20187;-79
2021/11/13 10:49:14;;;;;;;4.00;1.73;;;;;19.20;100960.00;;;;5033194;28;20202;-79
2021/11/13 10:51:50;;;;;;;3.35;1.58;;;;;19.20;100957.00;;;;5034752;28;20314;-80
2021/11/13 10:54:19;;;;;;;2.50;1.40;;;;;19.20;100955.00;;;;5030911;28;20206;-79
2021/11/13 10:56:48;;;;;;;3.58;1.67;;;;;19.30;100956.00;;;;5034701;28;20199;-79
2021/11/13 10:59:16;;;;;;;2.33;1.45;;;;;19.30;100955.00;;;;5038650;28;20200;-80
2021/11/13 11:01:46;;;;;;;2.28;1.58;;;;;19.40;100957.00;;;;5041575;28;20212;-80
2021/11/13 11:04:16;;;;;;;4.05;1.80;;;;;19.40;100956.00;;;;5036275;28;20366;-79
2021/11/13 11:06:49;;;;;;;2.22;1.67;;;;;19.40;100954.00;;;;5036410;28;20207;-80
2021/11/13 11:09:26;;;;;;;2.90;1.50;;;;;19.40;100951.00;;;;5032152;28;20658;-79
2021/11/13 11:11:56;;;;;;;3.05;1.98;;;;;19.40;100944.00;;;;5035447;28;20202;-80
2021/11/13 11:14:25;;;;;;;3.97;1.52;;;;;19.40;100955.00;;;;5031761;28;20196;-79
2021/11/13 11:16:55;;;;;;;5.13;1.75;;;;;19.40;100957.00;;;;5028675;28;20195;-79
2021/11/13 11:19:26;;;;;;;3.50;2.00;;;;;19.40;100959.00;;;;5027532;28;20303;-80
2021/11/13 11:21:58;;;;;;;3.38;1.60;;;;;19.40;100950.00;;;;5039977;28;20206;-79
2021/11/13 11:24:31;;;;;;;4.40;1.88;;;;;19.40;100961.00;;;;5035733;28;20196;-79
2021/11/13 11:27:02;;;;;;;2.63;1.75;;;;;19.40;100951.00;;;;5028673;28;20203;-81
2021/11/13 11:29:31;;;;;;;1.83;1.38;;;;;19.40;100958.00;;;;5042367;28;20234;-81
2021/11/13 11:32:02;;;;;;;2.20;1.60;;;;;19.40;100949.00;;;;5047526;28;20196;-81
2021/11/13 11:34:36;;;;;;;3.30;1.73;;;;;19.40;100959.00;;;;5041582;28;21030;-81
2021/11/13 11:37:14;;;;;;;2.67;1.92;;;;;19.40;100952.00;;;;5028256;28;20212;-80
2021/11/13 11:39:44;;;;;;;4.30;1.70;;;;;19.50;100954.00;;;;5030641;28;20611;-80
2021/11/13 11:42:13;;;;;;;5.18;2.22;;;;;19.50;100956.00;;;;5045821;28;20202;-80
2021/11/13 11:44:42;;;;;;;3.10;1.83;;;;;19.50;100958.00;;;;5041513;28;20207;-80
2021/11/13 11:47:14;;;;;;;3.22;1.70;;;;;19.50;100960.00;;;;5051692;28;20202;-80
2021/11/13 11:49:45;;;;;;;2.83;1.85;;;;;19.50;100962.00;;;;5046512;28;20227;-80
2021/11/13 11:52:16;;;;;;;4.10;1.75;;;;;19.60;100964.00;;;;5044945;28;20254;-80
2021/11/13 11:54:44;;;;;;;1.70;1.60;;;;;19.60;100963.00;;;;5037004;28;20197;-80
2021/11/13 11:57:12;;;;;;;4.00;1.63;;;;;19.60;100964.00;;;;5040295;28;20196;-80
2021/11/13 11:59:41;;;;;;;4.47;2.22;;;;;19.60;100975.00;;;;5045554;28;20679;-80
2021/11/13 12:02:11;;;;;;;5.10;3.58;;;;;19.60;100970.00;;;;5046173;28;20197;-79
2021/11/13 12:04:40;;;;;;;5.43;3.55;;;;;19.60;100968.00;;;;5046049;28;20218;-80
2021/11/13 12:07:09;;;;;;;3.60;3.00;;;;;19.70;100965.00;;;;5044263;28;20283;-79
2021/11/13 12:09:57;;;;;;;3.00;2.15;;;;;19.60;100968.00;;;;5055760;28;20226;-79
2021/11/13 12:12:25;;;;;;;3.75;2.25;;;;;19.80;100972.00;;;;5043392;28;20196;-79